Time,TemperatureF,DewpointF,PressureIn,WindDirection,WindDirectionDegrees,WindSpeedMPH,WindSpeedGustMPH,Humidity,HourlyPrecipIn,Conditions,Clouds,dailyrainin,SoftwareType,DateUTC
2013-02-20 00:02:00,-1.4,-7.1,30.48,WNW,300,0.0,0.0,76,0.00,,,0.00,Wunderground v.1.15,2013-02-20 06:02:00,
2013-02-20 00:08:00,-1.8,-7.5,30.48,WNW,300,0.0,0.0,76,0.00,,,0.00,Wunderground v.1.15,2013-02-20 06:08:00,
2013-02-20 00:14:00,-2.2,-7.6,30.49,WNW,300,0.0,0.0,77,0.00,,,0.00,Wunderground v.1.15,2013-02-20 06:14:00,
2013-02-20 00:19:00,-2.5,-7.9,30.49,WNW,300,0.0,0.0,77,0.00,,,0.00,Wunderground v.1.15,2013-02-20 06:19:00,
2013-02-20 00:24:00,-2.9,-8.3,30.49,WNW,300,0.0,0.0,77,0.00,,,0.00,Wunderground v.1.15,2013-02-20 06:24:00,
2013-02-20 00:30:00,-3.2,-8.4,30.49,WNW,300,0.0,0.0,78,0.00,,,0.00,Wunderground v.1.15,2013-02-20 06:30:00,
2013-02-20 00:35:00,-3.5,-8.6,30.49,WNW,300,0.0,0.0,78,0.00,,,0.00,Wunderground v.1.15,2013-02-20 06:35:00,
2013-02-20 00:41:00,-3.8,-8.7,30.49,WNW,300,0.0,0.0,79,0.00,,,0.00,Wunderground v.1.15,2013-02-20 06:41:00,
2013-02-20 00:46:00,-4.1,-9.0,30.49,WNW,300,1.0,1.0,79,0.00,,,0.00,Wunderground v.1.15,2013-02-20 06:46:00,
2013-02-20 00:52:00,-4.4,-9.0,30.50,WNW,300,1.0,3.0,80,0.00,,,0.00,Wunderground v.1.15,2013-02-20 06:52:00,
2013-02-20 00:57:00,-4.7,-9.6,30.50,WNW,300,0.0,3.0,79,0.00,,,0.00,Wunderground v.1.15,2013-02-20 06:57:00,
2013-02-20 01:03:00,-5.1,-9.7,30.50,WNW,300,0.0,1.0,80,0.00,,,0.00,Wunderground v.1.15,2013-02-20 07:03:00,
2013-02-20 01:08:00,-5.3,-9.9,30.50,WNW,300,0.0,1.0,80,0.00,,,0.00,Wunderground v.1.15,2013-02-20 07:08:00,
2013-02-20 01:14:00,-5.4,-9.7,30.50,WNW,300,0.0,0.0,81,0.00,,,0.00,Wunderground v.1.15,2013-02-20 07:14:00,
2013-02-20 01:19:00,-5.8,-10.1,30.50,WNW,300,1.0,2.0,81,0.00,,,0.00,Wunderground v.1.15,2013-02-20 07:19:00,
2013-02-20 01:25:00,-6.1,-10.4,30.50,WNW,300,0.0,0.0,81,0.00,,,0.00,Wunderground v.1.15,2013-02-20 07:25:00,
2013-02-20 01:31:00,-6.4,-10.5,30.51,WNW,300,0.0,0.0,82,0.00,,,0.00,Wunderground v.1.15,2013-02-20 07:31:00,
2013-02-20 04:08:00,-10.8,-14.5,30.54,WNW,300,0.0,0.0,83,0.00,,,0.00,Wunderground v.1.15,2013-02-20 10:08:00,
2013-02-20 04:13:00,-10.9,-14.6,30.53,WNW,300,0.0,0.0,83,0.00,,,0.00,Wunderground v.1.15,2013-02-20 10:13:00,
2013-02-20 04:18:00,-10.9,-14.4,30.54,WNW,300,0.0,0.0,84,0.00,,,0.00,Wunderground v.1.15,2013-02-20 10:18:00,
2013-02-20 04:23:00,-11.0,-14.5,30.54,WNW,300,0.0,0.0,84,0.00,,,0.00,Wunderground v.1.15,2013-02-20 10:23:00,
2013-02-20 04:28:00,-11.1,-14.6,30.55,WNW,300,0.0,0.0,84,0.00,,,0.00,Wunderground v.1.15,2013-02-20 10:28:00,
2013-02-20 04:33:00,-11.2,-14.7,30.55,WNW,300,0.0,0.0,84,0.00,,,0.00,Wunderground v.1.15,2013-02-20 10:33:00,
2013-02-20 04:38:00,-11.2,-14.7,30.55,WNW,300,0.0,1.0,84,0.00,,,0.00,Wunderground v.1.15,2013-02-20 10:38:00,
2013-02-20 04:43:00,-11.2,-14.7,30.55,WNW,300,0.0,2.0,84,0.00,,,0.00,Wunderground v.1.15,2013-02-20 10:43:00,
2013-02-20 04:49:00,-11.2,-14.7,30.55,WNW,300,0.0,2.0,84,0.00,,,0.00,Wunderground v.1.15,2013-02-20 10:49:00,
2013-02-20 04:54:00,-11.2,-14.7,30.55,WNW,300,0.0,0.0,84,0.00,,,0.00,Wunderground v.1.15,2013-02-20 10:54:00,
2013-02-20 04:59:00,-11.3,-14.8,30.55,WNW,300,0.0,0.0,84,0.00,,,0.00,Wunderground v.1.15,2013-02-20 10:59:00,
2013-02-20 05:04:00,-11.3,-14.8,30.55,WNW,300,0.0,0.0,84,0.00,,,0.00,Wunderground v.1.15,2013-02-20 11:04:00,
2013-02-20 05:09:00,-11.3,-14.8,30.54,WNW,300,0.0,0.0,84,0.00,,,0.00,Wunderground v.1.15,2013-02-20 11:09:00,
2013-02-20 05:14:00,-11.4,-14.9,30.55,WNW,300,0.0,0.0,84,0.00,,,0.00,Wunderground v.1.15,2013-02-20 11:14:00,
2013-02-20 05:20:00,-11.5,-15.0,30.54,WNW,300,0.0,0.0,84,0.00,,,0.00,Wunderground v.1.15,2013-02-20 11:20:00,
2013-02-20 05:25:00,-11.6,-15.3,30.54,WNW,300,0.0,0.0,83,0.00,,,0.00,Wunderground v.1.15,2013-02-20 11:25:00,
2013-02-20 05:30:00,-11.7,-15.2,30.55,WNW,300,0.0,0.0,84,0.00,,,0.00,Wunderground v.1.15,2013-02-20 11:30:00,
2013-02-20 05:35:00,-11.7,-15.2,30.55,WNW,300,0.0,0.0,84,0.00,,,0.00,Wunderground v.1.15,2013-02-20 11:35:00,
2013-02-20 05:40:00,-11.8,-15.3,30.55,WNW,300,0.0,0.0,84,0.00,,,0.00,Wunderground v.1.15,2013-02-20 11:40:00,
2013-02-20 05:45:00,-11.9,-15.6,30.55,WNW,300,0.0,0.0,83,0.00,,,0.00,Wunderground v.1.15,2013-02-20 11:45:00,
2013-02-20 05:51:00,-12.0,-15.7,30.55,WNW,300,0.0,0.0,83,0.00,,,0.00,Wunderground v.1.15,2013-02-20 11:51:00,
2013-02-20 05:56:00,-12.1,-15.8,30.55,WNW,300,0.0,0.0,83,0.00,,,0.00,Wunderground v.1.15,2013-02-20 11:56:00,
2013-02-20 06:01:00,-12.1,-15.6,30.55,WNW,300,0.0,0.0,84,0.00,,,0.00,Wunderground v.1.15,2013-02-20 12:01:00,
2013-02-20 06:06:00,-12.2,-15.9,30.56,WNW,300,0.0,0.0,83,0.00,,,0.00,Wunderground v.1.15,2013-02-20 12:06:00,
2013-02-20 06:11:00,-12.4,-16.1,30.56,WNW,300,0.0,0.0,83,0.00,,,0.00,Wunderground v.1.15,2013-02-20 12:11:00,
2013-02-20 06:16:00,-12.4,-16.1,30.56,WNW,300,0.0,0.0,83,0.00,,,0.00,Wunderground v.1.15,2013-02-20 12:16:00,
2013-02-20 06:21:00,-12.4,-15.9,30.56,WNW,300,0.0,0.0,84,0.00,,,0.00,Wunderground v.1.15,2013-02-20 12:21:00,
2013-02-20 06:26:00,-12.4,-15.9,30.57,WNW,300,0.0,0.0,84,0.00,,,0.00,Wunderground v.1.15,2013-02-20 12:26:00,
2013-02-20 06:32:00,-12.3,-15.8,30.57,WNW,300,0.0,0.0,84,0.00,,,0.00,Wunderground v.1.15,2013-02-20 12:32:00,
2013-02-20 06:37:00,-12.4,-15.9,30.57,WNW,300,0.0,0.0,84,0.00,,,0.00,Wunderground v.1.15,2013-02-20 12:37:00,
2013-02-20 06:42:00,-12.5,-16.0,30.57,WNW,300,0.0,0.0,84,0.00,,,0.00,Wunderground v.1.15,2013-02-20 12:42:00,
2013-02-20 06:47:00,-12.6,-16.3,30.57,WNW,300,0.0,0.0,83,0.00,,,0.00,Wunderground v.1.15,2013-02-20 12:47:00,
2013-02-20 06:52:00,-12.6,-16.3,30.56,WNW,300,0.0,0.0,83,0.00,,,0.00,Wunderground v.1.15,2013-02-20 12:52:00,
2013-02-20 06:58:00,-12.7,-16.2,30.57,WNW,300,0.0,0.0,84,0.00,,,0.00,Wunderground v.1.15,2013-02-20 12:58:00,
2013-02-20 07:03:00,-12.7,-16.4,30.56,WNW,300,0.0,0.0,83,0.00,,,0.00,Wunderground v.1.15,2013-02-20 13:03:00,
2013-02-20 07:08:00,-12.8,-16.5,30.57,WNW,300,0.0,0.0,83,0.00,,,0.00,Wunderground v.1.15,2013-02-20 13:08:00,
2013-02-20 07:13:00,-12.9,-16.6,30.57,WNW,300,0.0,0.0,83,0.00,,,0.00,Wunderground v.1.15,2013-02-20 13:13:00,
2013-02-20 07:18:00,-12.9,-16.6,30.57,WNW,300,0.0,0.0,83,0.00,,,0.00,Wunderground v.1.15,2013-02-20 13:18:00,
2013-02-20 07:23:00,-13.0,-16.7,30.57,WNW,300,0.0,0.0,83,0.00,,,0.00,Wunderground v.1.15,2013-02-20 13:23:00,
2013-02-20 07:28:00,-13.0,-16.7,30.57,WNW,300,0.0,0.0,83,0.00,,,0.00,Wunderground v.1.15,2013-02-20 13:28:00,
2013-02-20 07:33:00,-13.0,-16.7,30.58,WNW,300,0.0,0.0,83,0.00,,,0.00,Wunderground v.1.15,2013-02-20 13:33:00,
2013-02-20 07:38:00,-13.0,-16.7,30.58,WNW,300,0.0,0.0,83,0.00,,,0.00,Wunderground v.1.15,2013-02-20 13:38:00,
2013-02-20 07:43:00,-12.7,-16.2,30.58,WNW,300,0.0,0.0,84,0.00,,,0.00,Wunderground v.1.15,2013-02-20 13:43:00,
2013-02-20 07:48:00,-12.4,-15.9,30.58,WNW,300,0.0,0.0,84,0.00,,,0.00,Wunderground v.1.15,2013-02-20 13:48:00,
2013-02-20 07:53:00,-12.1,-15.3,30.58,WNW,300,0.0,0.0,85,0.00,,,0.00,Wunderground v.1.15,2013-02-20 13:53:00,
2013-02-20 07:58:00,-11.8,-15.0,30.58,WNW,300,0.0,0.0,85,0.00,,,0.00,Wunderground v.1.15,2013-02-20 13:58:00,
2013-02-20 08:03:00,-11.4,-14.6,30.58,WNW,300,0.0,0.0,85,0.00,,,0.00,Wunderground v.1.15,2013-02-20 14:03:00,
2013-02-20 08:08:00,-10.8,-13.8,30.58,WNW,300,0.0,0.0,86,0.00,,,0.00,Wunderground v.1.15,2013-02-20 14:08:00,
2013-02-20 08:14:00,-9.8,-12.6,30.58,WNW,300,2.0,2.0,87,0.00,,,0.00,Wunderground v.1.15,2013-02-20 14:14:00,
2013-02-20 08:19:00,-8.6,-11.2,30.58,WNW,300,0.0,3.0,88,0.00,,,0.00,Wunderground v.1.15,2013-02-20 14:19:00,
2013-02-20 08:24:00,-7.6,-10.2,30.58,WNW,300,2.0,2.0,88,0.00,,,0.00,Wunderground v.1.15,2013-02-20 14:24:00,
2013-02-20 08:29:00,-6.6,-9.2,30.58,WNW,300,0.0,2.0,88,0.00,,,0.00,Wunderground v.1.15,2013-02-20 14:29:00,
2013-02-20 08:34:00,-5.7,-8.3,30.58,NNE,21,0.0,5.0,88,0.00,,,0.00,Wunderground v.1.15,2013-02-20 14:34:00,
2013-02-20 08:39:00,-4.7,-7.3,30.58,NNE,21,1.0,5.0,88,0.00,,,0.00,Wunderground v.1.15,2013-02-20 14:39:00,
2013-02-20 08:44:00,-3.9,-6.8,30.57,NNE,21,0.0,2.0,87,0.00,,,0.00,Wunderground v.1.15,2013-02-20 14:44:00,
2013-02-20 08:49:00,-3.0,-5.9,30.58,NNE,26,0.0,4.0,87,0.00,,,0.00,Wunderground v.1.15,2013-02-20 14:49:00,
2013-02-20 08:54:00,-2.2,-5.4,30.58,NE,46,5.0,5.0,86,0.00,,,0.00,Wunderground v.1.15,2013-02-20 14:54:00,
2013-02-20 09:00:00,-1.3,-4.5,30.58,NE,46,1.0,5.0,86,0.00,,,0.00,Wunderground v.1.15,2013-02-20 15:00:00,
2013-02-20 09:05:00,-0.5,-4.2,30.57,NE,47,0.0,5.0,84,0.00,,,0.00,Wunderground v.1.15,2013-02-20 15:05:00,
2013-02-20 09:10:00,0.3,-3.6,30.57,NE,54,4.0,7.0,83,0.00,,,0.00,Wunderground v.1.15,2013-02-20 15:10:00,
2013-02-20 09:15:00,0.9,-3.3,30.57,NE,48,2.0,5.0,82,0.00,,,0.00,Wunderground v.1.15,2013-02-20 15:15:00,
2013-02-20 09:20:00,1.3,-3.4,30.57,NE,40,0.0,5.0,80,0.00,,,0.00,Wunderground v.1.15,2013-02-20 15:20:00,
2013-02-20 09:25:00,1.8,-3.5,30.57,ENE,63,2.0,6.0,78,0.00,,,0.00,Wunderground v.1.15,2013-02-20 15:25:00,
2013-02-20 09:30:00,2.2,-3.4,30.57,ENE,59,0.0,3.0,77,0.00,,,0.00,Wunderground v.1.15,2013-02-20 15:30:00,
2013-02-20 09:35:00,2.5,-3.3,30.57,ENE,74,4.0,7.0,76,0.00,,,0.00,Wunderground v.1.15,2013-02-20 15:35:00,
2013-02-20 09:40:00,3.1,-3.0,30.57,ENE,67,3.0,3.0,75,0.00,,,0.00,Wunderground v.1.15,2013-02-20 15:40:00,
2013-02-20 09:45:00,3.5,-2.9,30.57,ENE,71,3.0,6.0,74,0.00,,,0.00,Wunderground v.1.15,2013-02-20 15:45:00,
2013-02-20 09:51:00,4.1,-2.6,30.57,ENE,58,5.0,5.0,73,0.00,,,0.00,Wunderground v.1.15,2013-02-20 15:51:00,
2013-02-20 09:56:00,4.4,-2.6,30.57,ENE,62,4.0,7.0,72,0.00,,,0.00,Wunderground v.1.15,2013-02-20 15:56:00,
2013-02-20 10:01:00,4.5,-2.8,30.57,East,80,3.0,6.0,71,0.00,,,0.00,Wunderground v.1.15,2013-02-20 16:01:00,
2013-02-20 10:06:00,4.5,-2.8,30.57,ENE,61,4.0,6.0,71,0.00,,,0.00,Wunderground v.1.15,2013-02-20 16:06:00,
2013-02-20 10:12:00,4.9,-2.5,30.57,NNW,333,3.0,4.0,71,0.00,,,0.00,Wunderground v.1.15,2013-02-20 16:12:00,
2013-02-20 10:17:00,5.4,-2.0,30.57,NNE,28,0.0,4.0,71,0.00,,,0.00,Wunderground v.1.15,2013-02-20 16:17:00,
2013-02-20 10:22:00,6.0,-1.7,30.57,NE,34,3.0,5.0,70,0.00,,,0.00,Wunderground v.1.15,2013-02-20 16:22:00,
2013-02-20 10:27:00,6.0,-2.3,30.58,ENE,69,0.0,6.0,68,0.00,,,0.00,Wunderground v.1.15,2013-02-20 16:27:00,
2013-02-20 10:32:00,6.4,-1.6,30.57,ENE,65,1.0,4.0,69,0.00,,,0.00,Wunderground v.1.15,2013-02-20 16:32:00,
2013-02-20 10:37:00,6.9,0.9,30.57,ENE,65,3.0,5.0,76,0.00,,,0.00,Wunderground v.1.15,2013-02-20 16:37:00,
2013-02-20 10:42:00,7.6,-0.8,30.57,ENE,60,0.0,2.0,68,0.00,,,0.00,Wunderground v.1.15,2013-02-20 16:42:00,
2013-02-20 10:48:00,8.1,-0.6,30.57,ENE,60,2.0,3.0,67,0.00,,,0.00,Wunderground v.1.15,2013-02-20 16:48:00,
2013-02-20 10:53:00,9.0,-0.1,30.57,NNE,24,0.0,4.0,66,0.00,,,0.00,Wunderground v.1.15,2013-02-20 16:53:00,
2013-02-20 10:58:00,9.5,0.1,30.57,NNE,25,3.0,4.0,65,0.00,,,0.00,Wunderground v.1.15,2013-02-20 16:58:00,
2013-02-20 11:03:00,10.3,0.2,30.57,NNE,27,0.0,2.0,63,0.00,,,0.00,Wunderground v.1.15,2013-02-20 17:03:00,
2013-02-20 11:08:00,10.1,-0.3,30.57,NNE,26,2.0,3.0,62,0.00,,,0.00,Wunderground v.1.15,2013-02-20 17:08:00,
2013-02-20 11:13:00,10.5,0.4,30.57,NNE,26,0.0,3.0,63,0.00,,,0.00,Wunderground v.1.15,2013-02-20 17:13:00,
2013-02-20 11:18:00,11.2,0.7,30.57,NNE,26,0.0,4.0,62,0.00,,,0.00,Wunderground v.1.15,2013-02-20 17:18:00,
2013-02-20 11:23:00,10.6,-0.2,30.57,NNE,31,0.0,3.0,61,0.00,,,0.00,Wunderground v.1.15,2013-02-20 17:23:00,
2013-02-20 11:28:00,9.9,-0.5,30.57,NNE,31,0.0,3.0,62,0.00,,,0.00,Wunderground v.1.15,2013-02-20 17:28:00,
2013-02-20 11:33:00,11.2,1.4,30.58,NNE,31,1.0,3.0,64,0.00,,,0.00,Wunderground v.1.15,2013-02-20 17:33:00,
2013-02-20 11:38:00,12.2,1.7,30.58,NNE,31,0.0,3.0,62,0.00,,,0.00,Wunderground v.1.15,2013-02-20 17:38:00,
2013-02-20 11:43:00,12.8,1.5,30.58,NNE,32,1.0,2.0,60,0.00,,,0.00,Wunderground v.1.15,2013-02-20 17:43:00,
2013-02-20 11:48:00,12.2,0.6,30.58,NNE,32,0.0,2.0,59,0.00,,,0.00,Wunderground v.1.15,2013-02-20 17:48:00,
2013-02-20 11:54:00,11.5,-0.1,30.57,North,355,1.0,4.0,59,0.00,,,0.00,Wunderground v.1.15,2013-02-20 17:54:00,
2013-02-20 11:59:00,10.9,0.8,30.58,North,355,0.0,4.0,63,0.00,,,0.00,Wunderground v.1.15,2013-02-20 17:59:00,
2013-02-20 12:04:00,12.0,1.8,30.57,North,355,0.0,2.0,63,0.00,,,0.00,Wunderground v.1.15,2013-02-20 18:04:00,
2013-02-20 12:09:00,11.4,0.9,30.58,North,355,0.0,2.0,62,0.00,,,0.00,Wunderground v.1.15,2013-02-20 18:09:00,
2013-02-20 12:14:00,11.0,0.5,30.58,WNW,300,1.0,4.0,62,0.00,,,0.00,Wunderground v.1.15,2013-02-20 18:14:00,
2013-02-20 12:19:00,11.6,1.4,30.57,WNW,300,0.0,4.0,63,0.00,,,0.00,Wunderground v.1.15,2013-02-20 18:19:00,
2013-02-20 12:24:00,11.8,0.9,30.57,WNW,300,4.0,4.0,61,0.00,,,0.00,Wunderground v.1.15,2013-02-20 18:24:00,
2013-02-20 12:29:00,12.0,1.5,30.57,WNW,300,0.0,4.0,62,0.00,,,0.00,Wunderground v.1.15,2013-02-20 18:29:00,
2013-02-20 12:35:00,13.3,2.7,30.57,NNW,342,0.0,3.0,62,0.00,,,0.00,Wunderground v.1.15,2013-02-20 18:35:00,
2013-02-20 12:40:00,13.7,2.4,30.56,NNW,342,0.0,3.0,60,0.00,,,0.00,Wunderground v.1.15,2013-02-20 18:40:00,
2013-02-20 12:45:00,14.4,3.0,30.56,NNW,342,0.0,1.0,60,0.00,,,0.00,Wunderground v.1.15,2013-02-20 18:45:00,
2013-02-20 12:50:00,15.2,3.8,30.56,NNW,342,0.0,1.0,60,0.00,,,0.00,Wunderground v.1.15,2013-02-20 18:50:00,
2013-02-20 12:55:00,15.1,3.3,30.56,NNW,333,0.0,4.0,59,0.00,,,0.00,Wunderground v.1.15,2013-02-20 18:55:00,
2013-02-20 13:00:00,15.5,3.0,30.56,NNW,333,2.0,4.0,57,0.00,,,0.00,Wunderground v.1.15,2013-02-20 19:00:00,
2013-02-20 13:05:00,15.5,3.3,30.56,NNW,333,2.0,3.0,58,0.00,,,0.00,Wunderground v.1.15,2013-02-20 19:05:00,
2013-02-20 13:10:00,15.1,2.2,30.56,NNW,332,4.0,4.0,56,0.00,,,0.00,Wunderground v.1.15,2013-02-20 19:10:00,
2013-02-20 13:15:00,16.4,4.2,30.57,NNW,331,2.0,4.0,58,0.00,,,0.00,Wunderground v.1.15,2013-02-20 19:15:00,
2013-02-20 13:20:00,15.9,3.0,30.56,NNW,330,2.0,4.0,56,0.00,,,0.00,Wunderground v.1.15,2013-02-20 19:20:00,
2013-02-20 13:25:00,16.9,4.7,30.56,NNW,332,3.0,4.0,58,0.00,,,0.00,Wunderground v.1.15,2013-02-20 19:25:00,
2013-02-20 13:30:00,17.6,4.5,30.57,NNW,332,2.0,2.0,56,0.00,,,0.00,Wunderground v.1.15,2013-02-20 19:30:00,
2013-02-20 13:36:00,18.9,6.2,30.57,NNW,332,1.0,3.0,57,0.00,,,0.01,Wunderground v.1.15,2013-02-20 19:36:00,
2013-02-20 13:41:00,19.1,4.3,30.57,NNW,332,0.0,0.0,52,0.00,,,0.01,Wunderground v.1.15,2013-02-20 19:41:00,
2013-02-20 13:46:00,18.1,4.2,30.57,NNW,332,0.0,3.0,54,0.00,,,0.01,Wunderground v.1.15,2013-02-20 19:46:00,
2013-02-20 13:51:00,17.2,3.4,30.57,NNW,332,0.0,1.0,54,0.00,,,0.01,Wunderground v.1.15,2013-02-20 19:51:00,
2013-02-20 13:56:00,17.9,4.4,30.57,NNW,332,0.0,1.0,55,0.00,,,0.01,Wunderground v.1.15,2013-02-20 19:56:00,
2013-02-20 14:01:00,17.9,3.6,30.57,NNW,331,2.0,3.0,53,0.00,,,0.01,Wunderground v.1.15,2013-02-20 20:01:00,
2013-02-20 14:07:00,17.3,4.3,30.57,NW,311,0.0,3.0,56,0.00,,,0.01,Wunderground v.1.15,2013-02-20 20:07:00,
2013-02-20 14:12:00,17.3,3.5,30.57,NW,311,0.0,1.0,54,0.00,,,0.01,Wunderground v.1.15,2013-02-20 20:12:00,
2013-02-20 14:17:00,17.5,4.1,30.57,NW,311,0.0,1.0,55,0.00,,,0.01,Wunderground v.1.15,2013-02-20 20:17:00,
2013-02-20 14:22:00,18.4,6.1,30.57,NW,315,1.0,2.0,58,0.00,,,0.01,Wunderground v.1.15,2013-02-20 20:22:00,
2013-02-20 14:27:00,19.5,5.9,30.57,NW,315,0.0,2.0,55,0.00,,,0.01,Wunderground v.1.15,2013-02-20 20:27:00,
2013-02-20 14:32:00,19.9,5.5,30.57,NW,315,0.0,0.0,53,0.00,,,0.01,Wunderground v.1.15,2013-02-20 20:32:00,
2013-02-20 14:38:00,19.4,4.6,30.57,WNW,290,0.0,3.0,52,0.00,,,0.01,Wunderground v.1.15,2013-02-20 20:38:00,
2013-02-20 14:43:00,18.4,4.1,30.56,WSW,240,3.0,4.0,53,0.00,,,0.01,Wunderground v.1.15,2013-02-20 20:43:00,
2013-02-20 14:48:00,17.7,4.2,30.56,SW,228,4.0,6.0,55,0.00,,,0.01,Wunderground v.1.15,2013-02-20 20:48:00,
2013-02-20 14:53:00,17.3,4.7,30.56,SW,228,0.0,2.0,57,0.00,,,0.01,Wunderground v.1.15,2013-02-20 20:53:00,
2013-02-20 14:58:00,16.8,3.8,30.56,SW,228,2.0,2.0,56,0.00,,,0.01,Wunderground v.1.15,2013-02-20 20:58:00,
2013-02-20 15:03:00,16.7,4.1,30.56,SW,228,0.0,1.0,57,0.00,,,0.01,Wunderground v.1.15,2013-02-20 21:03:00,
2013-02-20 15:08:00,16.8,4.2,30.56,SW,228,0.0,1.0,57,0.00,,,0.01,Wunderground v.1.15,2013-02-20 21:08:00,
2013-02-20 15:13:00,17.2,4.6,30.55,SW,228,0.0,0.0,57,0.00,,,0.01,Wunderground v.1.15,2013-02-20 21:13:00,
2013-02-20 15:18:00,17.9,5.2,30.55,NE,42,1.0,6.0,57,0.00,,,0.01,Wunderground v.1.15,2013-02-20 21:18:00,
2013-02-20 15:23:00,18.7,6.0,30.55,NE,39,3.0,4.0,57,0.00,,,0.01,Wunderground v.1.15,2013-02-20 21:23:00,
2013-02-20 15:28:00,19.3,5.7,30.55,NE,39,0.0,4.0,55,0.00,,,0.01,Wunderground v.1.15,2013-02-20 21:28:00,
2013-02-20 15:33:00,19.5,5.5,30.55,NE,40,1.0,4.0,54,0.00,,,0.01,Wunderground v.1.15,2013-02-20 21:33:00,
2013-02-20 15:39:00,19.5,5.9,30.55,ENE,73,5.0,5.0,55,0.00,,,0.01,Wunderground v.1.15,2013-02-20 21:39:00,
2013-02-20 15:44:00,19.0,5.1,30.55,ENE,61,0.0,5.0,54,0.00,,,0.01,Wunderground v.1.15,2013-02-20 21:44:00,
2013-02-20 15:49:00,19.4,6.2,30.55,ENE,60,2.0,5.0,56,0.00,,,0.01,Wunderground v.1.15,2013-02-20 21:49:00,
2013-02-20 15:54:00,19.8,5.8,30.54,ENE,60,0.0,4.0,54,0.00,,,0.01,Wunderground v.1.15,2013-02-20 21:54:00,
2013-02-20 15:59:00,19.8,5.8,30.54,North,5,0.0,5.0,54,0.00,,,0.01,Wunderground v.1.15,2013-02-20 21:59:00,
2013-02-20 16:05:00,19.3,4.9,30.55,NE,41,2.0,5.0,53,0.00,,,0.01,Wunderground v.1.15,2013-02-20 22:05:00,
2013-02-20 16:10:00,18.8,4.5,30.54,NE,47,1.0,5.0,53,0.00,,,0.01,Wunderground v.1.15,2013-02-20 22:10:00,
2013-02-20 16:15:00,18.9,5.0,30.54,NNE,19,3.0,6.0,54,0.00,,,0.01,Wunderground v.1.15,2013-02-20 22:15:00,
2013-02-20 16:20:00,19.0,5.5,30.54,NNE,22,1.0,2.0,55,0.00,,,0.01,Wunderground v.1.15,2013-02-20 22:20:00,
2013-02-20 16:25:00,18.8,4.9,30.54,NNE,27,0.0,4.0,54,0.00,,,0.01,Wunderground v.1.15,2013-02-20 22:25:00,
2013-02-20 16:31:00,18.7,4.8,30.54,NE,46,3.0,3.0,54,0.00,,,0.01,Wunderground v.1.15,2013-02-20 22:31:00,
2013-02-20 16:36:00,18.4,4.5,30.54,NE,35,4.0,4.0,54,0.00,,,0.01,Wunderground v.1.15,2013-02-20 22:36:00,
2013-02-20 16:41:00,18.1,4.6,30.53,NE,36,4.0,4.0,55,0.00,,,0.01,Wunderground v.1.15,2013-02-20 22:41:00,
2013-02-20 16:46:00,17.9,4.4,30.54,NE,36,4.0,6.0,55,0.00,,,0.01,Wunderground v.1.15,2013-02-20 22:46:00,
2013-02-20 16:51:00,17.7,4.6,30.53,NNE,19,0.0,2.0,56,0.00,,,0.01,Wunderground v.1.15,2013-02-20 22:51:00,
2013-02-20 16:56:00,17.4,4.4,30.54,NE,44,3.0,6.0,56,0.00,,,0.01,Wunderground v.1.15,2013-02-20 22:56:00,
2013-02-20 17:01:00,16.8,3.8,30.53,ENE,60,3.0,4.0,56,0.00,,,0.01,Wunderground v.1.15,2013-02-20 23:01:00,
2013-02-20 17:07:00,16.4,3.8,30.53,NNE,32,0.0,6.0,57,0.00,,,0.01,Wunderground v.1.15,2013-02-20 23:07:00,
2013-02-20 17:12:00,16.2,4.0,30.53,ENE,62,1.0,4.0,58,0.00,,,0.01,Wunderground v.1.15,2013-02-20 23:12:00,
2013-02-20 17:17:00,16.0,3.8,30.53,NNE,24,2.0,6.0,58,0.00,,,0.01,Wunderground v.1.15,2013-02-20 23:17:00,
2013-02-20 17:22:00,15.7,3.5,30.53,NNE,25,1.0,4.0,58,0.00,,,0.01,Wunderground v.1.15,2013-02-20 23:22:00,
2013-02-20 17:27:00,15.6,3.8,30.53,NNE,25,1.0,4.0,59,0.00,,,0.01,Wunderground v.1.15,2013-02-20 23:27:00,
2013-02-20 17:32:00,15.5,4.1,30.53,NNE,25,0.0,3.0,60,0.00,,,0.01,Wunderground v.1.15,2013-02-20 23:32:00,
2013-02-20 17:37:00,15.3,3.9,30.53,NNE,25,0.0,3.0,60,0.00,,,0.01,Wunderground v.1.15,2013-02-20 23:37:00,
2013-02-20 17:42:00,15.2,4.1,30.53,NNE,25,0.0,0.0,61,0.00,,,0.01,Wunderground v.1.15,2013-02-20 23:42:00,
2013-02-20 17:47:00,15.0,3.6,30.53,NNE,25,0.0,2.0,60,0.00,,,0.01,Wunderground v.1.15,2013-02-20 23:47:00,
2013-02-20 17:52:00,14.9,3.9,30.53,NNE,25,2.0,3.0,61,0.00,,,0.01,Wunderground v.1.15,2013-02-20 23:52:00,
2013-02-20 17:57:00,14.7,3.7,30.53,NNE,25,0.0,3.0,61,0.00,,,0.01,Wunderground v.1.15,2013-02-20 23:57:00,
2013-02-20 18:03:00,14.5,3.8,30.53,NE,36,2.0,4.0,62,0.00,,,0.01,Wunderground v.1.15,2013-02-21 00:03:00,
2013-02-20 18:08:00,14.4,3.7,30.53,NE,55,0.0,7.0,62,0.00,,,0.01,Wunderground v.1.15,2013-02-21 00:08:00,
2013-02-20 18:13:00,14.2,3.9,30.53,NE,55,3.0,3.0,63,0.00,,,0.01,Wunderground v.1.15,2013-02-21 00:13:00,
2013-02-20 18:18:00,14.1,3.8,30.52,NE,55,0.0,4.0,63,0.00,,,0.01,Wunderground v.1.15,2013-02-21 00:18:00,
2013-02-20 18:23:00,13.9,4.0,30.52,NE,55,0.0,1.0,64,0.00,,,0.01,Wunderground v.1.15,2013-02-21 00:23:00,
2013-02-20 18:28:00,13.7,3.8,30.52,NE,55,0.0,1.0,64,0.00,,,0.01,Wunderground v.1.15,2013-02-21 00:28:00,
2013-02-20 18:33:00,13.5,3.6,30.52,NE,55,0.0,0.0,64,0.00,,,0.01,Wunderground v.1.15,2013-02-21 00:33:00,
2013-02-20 18:38:00,13.4,3.5,30.52,NE,55,0.0,0.0,64,0.00,,,0.01,Wunderground v.1.15,2013-02-21 00:38:00,
2013-02-20 18:43:00,13.2,3.6,30.52,NE,55,0.0,0.0,65,0.00,,,0.01,Wunderground v.1.15,2013-02-21 00:43:00,
2013-02-20 18:49:00,13.0,3.4,30.52,NE,55,0.0,1.0,65,0.00,,,0.01,Wunderground v.1.15,2013-02-21 00:49:00,
2013-02-20 18:54:00,12.7,3.5,30.52,NE,55,0.0,0.0,66,0.00,,,0.01,Wunderground v.1.15,2013-02-21 00:54:00,
2013-02-20 18:59:00,12.5,3.3,30.52,NE,55,0.0,0.0,66,0.00,,,0.01,Wunderground v.1.15,2013-02-21 00:59:00,
2013-02-20 19:05:00,12.3,3.4,30.52,NE,55,0.0,0.0,67,0.00,,,0.01,Wunderground v.1.15,2013-02-21 01:05:00,
2013-02-20 19:10:00,12.1,3.2,30.52,NE,55,0.0,0.0,67,0.00,,,0.01,Wunderground v.1.15,2013-02-21 01:10:00,
2013-02-20 19:15:00,11.9,3.0,30.52,NE,55,0.0,0.0,67,0.00,,,0.01,Wunderground v.1.15,2013-02-21 01:15:00,
2013-02-20 19:20:00,11.7,3.2,30.52,NE,55,0.0,0.0,68,0.00,,,0.01,Wunderground v.1.15,2013-02-21 01:20:00,
2013-02-20 19:25:00,11.5,3.0,30.52,NE,55,0.0,0.0,68,0.00,,,0.01,Wunderground v.1.15,2013-02-21 01:25:00,
2013-02-20 19:30:00,11.3,2.8,30.52,NE,55,0.0,0.0,68,0.00,,,0.01,Wunderground v.1.15,2013-02-21 01:30:00,
2013-02-20 19:35:00,11.0,2.5,30.52,NE,55,0.0,0.0,68,0.00,,,0.01,Wunderground v.1.15,2013-02-21 01:35:00,
2013-02-20 19:40:00,10.8,2.6,30.51,NE,55,0.0,0.0,69,0.00,,,0.01,Wunderground v.1.15,2013-02-21 01:40:00,
2013-02-20 19:45:00,10.5,2.6,30.51,NE,55,0.0,0.0,70,0.00,,,0.01,Wunderground v.1.15,2013-02-21 01:45:00,
2013-02-20 19:50:00,10.3,2.8,30.51,NE,55,0.0,0.0,71,0.00,,,0.01,Wunderground v.1.15,2013-02-21 01:50:00,
2013-02-20 19:55:00,10.2,2.7,30.51,NE,55,0.0,0.0,71,0.00,,,0.01,Wunderground v.1.15,2013-02-21 01:55:00,
2013-02-20 20:00:00,10.0,2.5,30.51,NE,55,0.0,0.0,71,0.00,,,0.01,Wunderground v.1.15,2013-02-21 02:00:00,
2013-02-20 20:06:00,9.7,2.2,30.51,NE,55,0.0,0.0,71,0.00,,,0.01,Wunderground v.1.15,2013-02-21 02:06:00,
2013-02-20 20:11:00,9.5,2.0,30.51,NE,55,0.0,0.0,71,0.00,,,0.01,Wunderground v.1.15,2013-02-21 02:11:00,
2013-02-20 20:17:00,9.4,2.2,30.51,NE,55,0.0,0.0,72,0.00,,,0.01,Wunderground v.1.15,2013-02-21 02:17:00,
2013-02-20 20:22:00,9.2,2.0,30.51,NE,55,0.0,0.0,72,0.00,,,0.01,Wunderground v.1.15,2013-02-21 02:22:00,
2013-02-20 20:27:00,9.0,2.1,30.51,NE,55,0.0,0.0,73,0.00,,,0.01,Wunderground v.1.15,2013-02-21 02:27:00,
2013-02-20 20:32:00,8.7,1.8,30.51,NE,55,0.0,0.0,73,0.00,,,0.01,Wunderground v.1.15,2013-02-21 02:32:00,
2013-02-20 20:37:00,8.4,1.5,30.51,NE,55,0.0,0.0,73,0.00,,,0.01,Wunderground v.1.15,2013-02-21 02:37:00,
2013-02-20 20:42:00,8.1,1.5,30.51,NE,55,0.0,0.0,74,0.00,,,0.01,Wunderground v.1.15,2013-02-21 02:42:00,
2013-02-20 20:48:00,7.8,1.2,30.51,NE,55,0.0,0.0,74,0.00,,,0.01,Wunderground v.1.15,2013-02-21 02:48:00,
2013-02-20 20:53:00,7.6,1.3,30.51,NE,55,0.0,0.0,75,0.00,,,0.01,Wunderground v.1.15,2013-02-21 02:53:00,
2013-02-20 20:58:00,7.4,1.1,30.51,NE,55,0.0,0.0,75,0.00,,,0.01,Wunderground v.1.15,2013-02-21 02:58:00,
2013-02-20 21:03:00,7.2,1.2,30.51,NE,55,0.0,0.0,76,0.00,,,0.01,Wunderground v.1.15,2013-02-21 03:03:00,
2013-02-20 21:08:00,7.0,1.0,30.51,NE,55,0.0,0.0,76,0.00,,,0.01,Wunderground v.1.15,2013-02-21 03:08:00,
2013-02-20 21:13:00,6.7,0.7,30.51,NE,55,0.0,0.0,76,0.00,,,0.01,Wunderground v.1.15,2013-02-21 03:13:00,
2013-02-20 21:18:00,6.5,0.5,30.51,NE,55,0.0,0.0,76,0.00,,,0.01,Wunderground v.1.15,2013-02-21 03:18:00,
2013-02-20 21:23:00,6.4,0.4,30.51,NE,55,0.0,0.0,76,0.00,,,0.01,Wunderground v.1.15,2013-02-21 03:23:00,
2013-02-20 21:28:00,6.2,0.5,30.51,NE,55,0.0,0.0,77,0.00,,,0.01,Wunderground v.1.15,2013-02-21 03:28:00,
2013-02-20 21:33:00,6.0,0.3,30.51,NE,55,0.0,0.0,77,0.00,,,0.01,Wunderground v.1.15,2013-02-21 03:33:00,
2013-02-20 21:39:00,5.8,0.1,30.52,NE,55,0.0,0.0,77,0.00,,,0.01,Wunderground v.1.15,2013-02-21 03:39:00,
2013-02-20 21:44:00,5.7,0.3,30.52,NE,55,0.0,0.0,78,0.00,,,0.01,Wunderground v.1.15,2013-02-21 03:44:00,
2013-02-20 21:49:00,5.5,0.1,30.52,NE,55,0.0,0.0,78,0.00,,,0.01,Wunderground v.1.15,2013-02-21 03:49:00,
2013-02-20 21:54:00,5.3,-0.1,30.52,NE,55,0.0,0.0,78,0.00,,,0.01,Wunderground v.1.15,2013-02-21 03:54:00,
2013-02-20 21:59:00,5.1,-0.3,30.52,NE,55,0.0,0.0,78,0.00,,,0.01,Wunderground v.1.15,2013-02-21 03:59:00,
2013-02-20 22:04:00,4.9,2.1,30.51,NE,55,0.0,0.0,88,0.00,,,0.01,Wunderground v.1.15,2013-02-21 04:04:00,
2013-02-20 22:09:00,4.8,-0.3,30.51,NE,55,0.0,0.0,79,0.00,,,0.01,Wunderground v.1.15,2013-02-21 04:09:00,
2013-02-20 22:14:00,4.7,-0.4,30.51,NE,55,0.0,0.0,79,0.00,,,0.01,Wunderground v.1.15,2013-02-21 04:14:00,
2013-02-20 22:19:00,4.5,-0.6,30.51,NE,55,0.0,1.0,79,0.00,,,0.01,Wunderground v.1.15,2013-02-21 04:19:00,
2013-02-20 22:24:00,4.4,-0.7,30.51,NE,55,0.0,0.0,79,0.00,,,0.01,Wunderground v.1.15,2013-02-21 04:24:00,
2013-02-20 22:29:00,4.4,-0.4,30.51,NE,55,0.0,0.0,80,0.00,,,0.01,Wunderground v.1.15,2013-02-21 04:29:00,
2013-02-20 22:34:00,4.3,-0.5,30.51,NE,55,0.0,0.0,80,0.00,,,0.01,Wunderground v.1.15,2013-02-21 04:34:00,
2013-02-20 22:40:00,4.2,-0.6,30.51,NE,55,0.0,0.0,80,0.00,,,0.01,Wunderground v.1.15,2013-02-21 04:40:00,
2013-02-20 22:45:00,4.1,-0.7,30.51,NE,55,0.0,0.0,80,0.00,,,0.01,Wunderground v.1.15,2013-02-21 04:45:00,
2013-02-20 22:50:00,4.0,-0.5,30.51,NE,55,0.0,0.0,81,0.00,,,0.01,Wunderground v.1.15,2013-02-21 04:50:00,
2013-02-20 22:55:00,3.8,-1.0,30.51,NE,55,0.0,1.0,80,0.00,,,0.01,Wunderground v.1.15,2013-02-21 04:55:00,
2013-02-20 23:00:00,3.6,-1.2,30.51,NE,55,0.0,1.0,80,0.00,,,0.01,Wunderground v.1.15,2013-02-21 05:00:00,
2013-02-20 23:02:00,3.6,-1.2,30.51,NE,55,1.0,1.0,80,0.00,,,0.01,Wunderground v.1.15,2013-02-21 05:02:00,
2013-02-20 23:07:00,3.6,-0.9,30.51,NE,55,0.0,1.0,81,0.00,,,0.01,Wunderground v.1.15,2013-02-21 05:07:00,
2013-02-20 23:12:00,3.5,-1.0,30.51,NE,55,0.0,0.0,81,0.00,,,0.01,Wunderground v.1.15,2013-02-21 05:12:00,
2013-02-20 23:17:00,3.7,-0.6,30.51,NE,55,0.0,0.0,82,0.00,,,0.01,Wunderground v.1.15,2013-02-21 05:17:00,
2013-02-20 23:22:00,4.0,-0.3,30.51,NE,55,0.0,0.0,82,0.00,,,0.01,Wunderground v.1.15,2013-02-21 05:22:00,
2013-02-20 23:27:00,4.3,0.0,30.51,NE,55,0.0,1.0,82,0.00,,,0.01,Wunderground v.1.15,2013-02-21 05:27:00,
2013-02-20 23:32:00,4.7,0.4,30.51,NNE,33,0.0,6.0,82,0.00,,,0.01,Wunderground v.1.15,2013-02-21 05:32:00,
2013-02-20 23:38:00,5.4,1.1,30.51,NNE,33,0.0,6.0,82,0.00,,,0.01,Wunderground v.1.15,2013-02-21 05:38:00,
2013-02-20 23:43:00,5.8,1.2,30.51,NNE,33,1.0,3.0,81,0.00,,,0.01,Wunderground v.1.15,2013-02-21 05:43:00,
2013-02-20 23:48:00,6.3,1.7,30.51,NNE,33,0.0,3.0,81,0.00,,,0.01,Wunderground v.1.15,2013-02-21 05:48:00,
2013-02-20 23:53:00,6.7,1.8,30.51,NNE,33,0.0,0.0,80,0.00,,,0.01,Wunderground v.1.15,2013-02-21 05:53:00,
2013-02-20 23:58:00,6.9,1.8,30.52,NNE,33,0.0,0.0,79,0.00,,,0.01,Wunderground v.1.15,2013-02-21 05:58:00,